Terminal Aerodrome Forecast
Issued by NWS

Home | Current Version | Previous Version | Text Only | Print | Product List | Glossary On
Versions: 1 2 3 4 5 6 7 8 9 10 11 12 13 14
000
FTUS45 KGJT 191129
TAFMTJ
TAF
KMTJ 191129Z 1912/2012 09003KT P6SM SCT140
     FM191300 15005KT P6SM VCSH BKN140
     FM191900 25008KT P6SM -SHRA BKN050
     FM192200 21008KT P6SM VCSH BKN050
     FM200200 19004KT 5SM BR VCSH OVC060
     FM200500 14005KT P6SM VCSH BKN035=

USA.gov is the U.S. government's official web portal to all federal, state and local government web resources and services.